sensor_id;sensor_type;location;lat;lon;timestamp;P1;durP1;ratioP1;P2;durP2;ratioP2
11125;SDS011;5617;54.046;10.676;2022-12-18T00:00:38;14.88;;;8.77;;
11125;SDS011;5617;54.046;10.676;2022-12-18T00:02:46;17.98;;;11.02;;
11125;SDS011;5617;54.046;10.676;2022-12-18T00:04:54;17.02;;;10.95;;
11125;SDS011;5617;54.046;10.676;2022-12-18T00:07:01;12.38;;;7.57;;
11125;SDS011;5617;54.046;10.676;2022-12-18T00:09:08;17.20;;;11.40;;
11125;SDS011;5617;54.046;10.676;2022-12-18T00:11:17;14.73;;;10.02;;
11125;SDS011;5617;54.046;10.676;2022-12-18T00:13:25;20.88;;;12.70;;
11125;SDS011;5617;54.046;10.676;2022-12-18T00:15:33;14.93;;;8.90;;
11125;SDS011;5617;54.046;10.676;2022-12-18T00:17:40;17.52;;;10.77;;
11125;SDS011;5617;54.046;10.676;2022-12-18T00:19:47;16.65;;;11.68;;
11125;SDS011;5617;54.046;10.676;2022-12-18T00:21:56;15.70;;;8.68;;
11125;SDS011;5617;54.046;10.676;2022-12-18T00:24:03;13.88;;;9.63;;
11125;SDS011;5617;54.046;10.676;2022-12-18T00:26:16;18.85;;;11.77;;
11125;SDS011;5617;54.046;10.676;2022-12-18T00:28:24;19.30;;;11.52;;
11125;SDS011;5617;54.046;10.676;2022-12-18T00:30:31;19.67;;;12.07;;
11125;SDS011;5617;54.046;10.676;2022-12-18T00:32:38;17.75;;;11.85;;
11125;SDS011;5617;54.046;10.676;2022-12-18T00:34:45;17.35;;;11.73;;
11125;SDS011;5617;54.046;10.676;2022-12-18T00:36:52;13.23;;;8.93;;
11125;SDS011;5617;54.046;10.676;2022-12-18T00:39:01;18.33;;;11.60;;
11125;SDS011;5617;54.046;10.676;2022-12-18T00:41:10;14.00;;;9.60;;
11125;SDS011;5617;54.046;10.676;2022-12-18T00:43:18;13.65;;;10.15;;
11125;SDS011;5617;54.046;10.676;2022-12-18T00:45:24;16.90;;;10.63;;
11125;SDS011;5617;54.046;10.676;2022-12-18T00:47:32;18.75;;;12.23;;
11125;SDS011;5617;54.046;10.676;2022-12-18T00:49:39;18.05;;;10.90;;
11125;SDS011;5617;54.046;10.676;2022-12-18T00:51:46;17.17;;;10.13;;
11125;SDS011;5617;54.046;10.676;2022-12-18T00:53:53;15.20;;;9.35;;
11125;SDS011;5617;54.046;10.676;2022-12-18T00:56:01;18.75;;;11.80;;
11125;SDS011;5617;54.046;10.676;2022-12-18T00:58:09;18.88;;;11.27;;
11125;SDS011;5617;54.046;10.676;2022-12-18T01:00:17;14.85;;;9.90;;
11125;SDS011;5617;54.046;10.676;2022-12-18T01:02:24;17.42;;;10.55;;
11125;SDS011;5617;54.046;10.676;2022-12-18T01:04:31;16.10;;;11.02;;
11125;SDS011;5617;54.046;10.676;2022-12-18T01:06:39;18.83;;;11.52;;
11125;SDS011;5617;54.046;10.676;2022-12-18T01:08:46;14.23;;;9.70;;
11125;SDS011;5617;54.046;10.676;2022-12-18T01:10:53;13.68;;;9.23;;
11125;SDS011;5617;54.046;10.676;2022-12-18T01:13:01;16.42;;;10.23;;
11125;SDS011;5617;54.046;10.676;2022-12-18T01:15:09;16.13;;;10.27;;
11125;SDS011;5617;54.046;10.676;2022-12-18T01:17:18;21.15;;;11.82;;
11125;SDS011;5617;54.046;10.676;2022-12-18T01:19:24;16.75;;;9.98;;
11125;SDS011;5617;54.046;10.676;2022-12-18T01:21:33;15.80;;;9.02;;
11125;SDS011;5617;54.046;10.676;2022-12-18T01:23:40;16.25;;;10.57;;
11125;SDS011;5617;54.046;10.676;2022-12-18T01:25:47;16.75;;;10.45;;
11125;SDS011;5617;54.046;10.676;2022-12-18T01:27:53;18.48;;;10.90;;
11125;SDS011;5617;54.046;10.676;2022-12-18T01:30:02;17.92;;;11.05;;
11125;SDS011;5617;54.046;10.676;2022-12-18T01:32:10;16.92;;;10.75;;
11125;SDS011;5617;54.046;10.676;2022-12-18T01:34:17;18.02;;;11.77;;
11125;SDS011;5617;54.046;10.676;2022-12-18T01:36:25;16.92;;;11.25;;
11125;SDS011;5617;54.046;10.676;2022-12-18T01:38:34;14.50;;;10.15;;
11125;SDS011;5617;54.046;10.676;2022-12-18T01:40:41;15.85;;;10.40;;
11125;SDS011;5617;54.046;10.676;2022-12-18T01:42:49;16.92;;;10.77;;
11125;SDS011;5617;54.046;10.676;2022-12-18T01:44:58;15.35;;;9.93;;
11125;SDS011;5617;54.046;10.676;2022-12-18T01:47:09;15.73;;;11.02;;
11125;SDS011;5617;54.046;10.676;2022-12-18T01:49:24;18.63;;;11.55;;
11125;SDS011;5617;54.046;10.676;2022-12-18T01:51:30;15.10;;;10.13;;
11125;SDS011;5617;54.046;10.676;2022-12-18T01:53:39;16.20;;;10.48;;
11125;SDS011;5617;54.046;10.676;2022-12-18T01:55:48;17.45;;;11.25;;
11125;SDS011;5617;54.046;10.676;2022-12-18T01:57:57;15.68;;;9.07;;
11125;SDS011;5617;54.046;10.676;2022-12-18T02:00:10;16.58;;;10.77;;
11125;SDS011;5617;54.046;10.676;2022-12-18T02:02:19;17.38;;;11.25;;
11125;SDS011;5617;54.046;10.676;2022-12-18T02:04:27;18.00;;;10.48;;
11125;SDS011;5617;54.046;10.676;2022-12-18T02:06:35;17.10;;;10.52;;
11125;SDS011;5617;54.046;10.676;2022-12-18T02:08:49;17.58;;;10.57;;
11125;SDS011;5617;54.046;10.676;2022-12-18T02:11:05;18.33;;;11.88;;
11125;SDS011;5617;54.046;10.676;2022-12-18T02:13:19;16.42;;;11.07;;
11125;SDS011;5617;54.046;10.676;2022-12-18T02:15:33;15.88;;;10.55;;
11125;SDS011;5617;54.046;10.676;2022-12-18T02:17:45;15.68;;;10.38;;
11125;SDS011;5617;54.046;10.676;2022-12-18T02:20:01;18.52;;;11.30;;
11125;SDS011;5617;54.046;10.676;2022-12-18T02:22:19;16.45;;;10.95;;
11125;SDS011;5617;54.046;10.676;2022-12-18T02:24:34;17.77;;;10.70;;
11125;SDS011;5617;54.046;10.676;2022-12-18T02:26:48;17.77;;;11.60;;
11125;SDS011;5617;54.046;10.676;2022-12-18T02:28:59;16.23;;;10.55;;
11125;SDS011;5617;54.046;10.676;2022-12-18T02:31:11;18.48;;;11.30;;
11125;SDS011;5617;54.046;10.676;2022-12-18T02:33:20;15.82;;;8.90;;
11125;SDS011;5617;54.046;10.676;2022-12-18T02:35:31;14.30;;;9.35;;
11125;SDS011;5617;54.046;10.676;2022-12-18T02:37:40;16.92;;;11.05;;
11125;SDS011;5617;54.046;10.676;2022-12-18T02:39:50;13.48;;;9.65;;
11125;SDS011;5617;54.046;10.676;2022-12-18T02:42:00;20.25;;;10.90;;
11125;SDS011;5617;54.046;10.676;2022-12-18T02:44:13;18.27;;;11.48;;
11125;SDS011;5617;54.046;10.676;2022-12-18T02:46:25;18.13;;;11.50;;
11125;SDS011;5617;54.046;10.676;2022-12-18T02:48:37;14.23;;;8.95;;
11125;SDS011;5617;54.046;10.676;2022-12-18T02:50:45;15.52;;;10.50;;
11125;SDS011;5617;54.046;10.676;2022-12-18T02:53:02;19.58;;;11.63;;
11125;SDS011;5617;54.046;10.676;2022-12-18T02:55:18;17.67;;;10.27;;
11125;SDS011;5617;54.046;10.676;2022-12-18T02:57:36;18.60;;;10.95;;
11125;SDS011;5617;54.046;10.676;2022-12-18T02:59:50;14.27;;;8.75;;
11125;SDS011;5617;54.046;10.676;2022-12-18T03:02:06;14.38;;;9.80;;
11125;SDS011;5617;54.046;10.676;2022-12-18T03:04:19;15.57;;;10.55;;
11125;SDS011;5617;54.046;10.676;2022-12-18T03:06:32;14.18;;;7.95;;
11125;SDS011;5617;54.046;10.676;2022-12-18T03:08:43;10.00;;;6.75;;
11125;SDS011;5617;54.046;10.676;2022-12-18T03:10:55;12.73;;;7.30;;
11125;SDS011;5617;54.046;10.676;2022-12-18T03:13:09;17.85;;;10.32;;
11125;SDS011;5617;54.046;10.676;2022-12-18T03:15:21;17.13;;;9.98;;
11125;SDS011;5617;54.046;10.676;2022-12-18T03:17:32;16.55;;;10.20;;
11125;SDS011;5617;54.046;10.676;2022-12-18T03:19:40;17.40;;;11.52;;
11125;SDS011;5617;54.046;10.676;2022-12-18T03:21:51;17.38;;;11.30;;
11125;SDS011;5617;54.046;10.676;2022-12-18T03:24:00;16.95;;;11.18;;
11125;SDS011;5617;54.046;10.676;2022-12-18T03:26:10;17.65;;;10.75;;
11125;SDS011;5617;54.046;10.676;2022-12-18T03:28:22;16.75;;;10.85;;
11125;SDS011;5617;54.046;10.676;2022-12-18T03:30:29;18.60;;;9.77;;
11125;SDS011;5617;54.046;10.676;2022-12-18T03:32:39;13.80;;;8.93;;
11125;SDS011;5617;54.046;10.676;2022-12-18T03:34:50;12.60;;;7.05;;
11125;SDS011;5617;54.046;10.676;2022-12-18T03:37:02;18.42;;;11.85;;
11125;SDS011;5617;54.046;10.676;2022-12-18T03:39:10;18.33;;;11.27;;
11125;SDS011;5617;54.046;10.676;2022-12-18T03:41:18;16.00;;;11.07;;
11125;SDS011;5617;54.046;10.676;2022-12-18T03:43:38;14.88;;;9.60;;
11125;SDS011;5617;54.046;10.676;2022-12-18T03:45:52;16.33;;;10.48;;
11125;SDS011;5617;54.046;10.676;2022-12-18T03:48:06;16.95;;;10.68;;
11125;SDS011;5617;54.046;10.676;2022-12-18T03:50:20;17.58;;;9.77;;
11125;SDS011;5617;54.046;10.676;2022-12-18T03:52:32;17.35;;;9.80;;
11125;SDS011;5617;54.046;10.676;2022-12-18T03:54:44;16.15;;;8.70;;
11125;SDS011;5617;54.046;10.676;2022-12-18T03:56:53;13.98;;;9.10;;
11125;SDS011;5617;54.046;10.676;2022-12-18T03:59:06;17.45;;;10.63;;
11125;SDS011;5617;54.046;10.676;2022-12-18T04:01:16;15.90;;;9.70;;
11125;SDS011;5617;54.046;10.676;2022-12-18T04:03:23;12.85;;;8.15;;
11125;SDS011;5617;54.046;10.676;2022-12-18T04:05:32;13.70;;;8.80;;
11125;SDS011;5617;54.046;10.676;2022-12-18T04:07:42;17.25;;;10.70;;
11125;SDS011;5617;54.046;10.676;2022-12-18T04:09:50;16.38;;;9.90;;
11125;SDS011;5617;54.046;10.676;2022-12-18T04:12:02;16.88;;;11.02;;
11125;SDS011;5617;54.046;10.676;2022-12-18T04:14:10;9.95;;;6.72;;
11125;SDS011;5617;54.046;10.676;2022-12-18T04:16:17;18.15;;;10.52;;
11125;SDS011;5617;54.046;10.676;2022-12-18T04:18:24;16.08;;;10.63;;
11125;SDS011;5617;54.046;10.676;2022-12-18T04:20:30;16.58;;;11.30;;
11125;SDS011;5617;54.046;10.676;2022-12-18T04:22:37;16.90;;;10.25;;
11125;SDS011;5617;54.046;10.676;2022-12-18T04:24:44;17.80;;;11.98;;
11125;SDS011;5617;54.046;10.676;2022-12-18T04:26:51;18.67;;;11.43;;
11125;SDS011;5617;54.046;10.676;2022-12-18T04:28:58;15.70;;;10.43;;
11125;SDS011;5617;54.046;10.676;2022-12-18T04:31:06;17.95;;;11.18;;
11125;SDS011;5617;54.046;10.676;2022-12-18T04:33:13;19.23;;;12.90;;
11125;SDS011;5617;54.046;10.676;2022-12-18T04:35:23;18.67;;;11.80;;
11125;SDS011;5617;54.046;10.676;2022-12-18T04:37:30;23.50;;;13.07;;
11125;SDS011;5617;54.046;10.676;2022-12-18T04:39:37;20.77;;;12.82;;
11125;SDS011;5617;54.046;10.676;2022-12-18T04:41:44;26.58;;;15.80;;
11125;SDS011;5617;54.046;10.676;2022-12-18T04:43:51;25.05;;;17.33;;
11125;SDS011;5617;54.046;10.676;2022-12-18T04:46:01;32.17;;;17.98;;
11125;SDS011;5617;54.046;10.676;2022-12-18T04:48:10;20.13;;;13.30;;
11125;SDS011;5617;54.046;10.676;2022-12-18T04:50:16;33.13;;;20.35;;
11125;SDS011;5617;54.046;10.676;2022-12-18T04:52:23;30.52;;;19.42;;
11125;SDS011;5617;54.046;10.676;2022-12-18T04:54:30;29.20;;;18.60;;
11125;SDS011;5617;54.046;10.676;2022-12-18T04:56:37;30.52;;;18.02;;
11125;SDS011;5617;54.046;10.676;2022-12-18T04:58:44;32.78;;;21.50;;
11125;SDS011;5617;54.046;10.676;2022-12-18T05:00:51;32.58;;;19.08;;
11125;SDS011;5617;54.046;10.676;2022-12-18T05:02:59;39.00;;;24.08;;
11125;SDS011;5617;54.046;10.676;2022-12-18T05:05:09;34.38;;;21.90;;
11125;SDS011;5617;54.046;10.676;2022-12-18T05:07:15;29.33;;;18.98;;
11125;SDS011;5617;54.046;10.676;2022-12-18T05:09:22;36.13;;;24.33;;
11125;SDS011;5617;54.046;10.676;2022-12-18T05:11:29;39.92;;;25.08;;
11125;SDS011;5617;54.046;10.676;2022-12-18T05:13:36;38.45;;;23.35;;
11125;SDS011;5617;54.046;10.676;2022-12-18T05:15:50;35.80;;;22.23;;
11125;SDS011;5617;54.046;10.676;2022-12-18T05:17:58;31.08;;;20.27;;
11125;SDS011;5617;54.046;10.676;2022-12-18T05:20:05;29.08;;;18.63;;
11125;SDS011;5617;54.046;10.676;2022-12-18T05:22:14;26.08;;;16.60;;
11125;SDS011;5617;54.046;10.676;2022-12-18T05:24:21;31.38;;;17.55;;
11125;SDS011;5617;54.046;10.676;2022-12-18T05:26:28;28.70;;;17.67;;
11125;SDS011;5617;54.046;10.676;2022-12-18T05:28:35;27.02;;;16.02;;
11125;SDS011;5617;54.046;10.676;2022-12-18T05:30:42;23.83;;;14.75;;
11125;SDS011;5617;54.046;10.676;2022-12-18T05:32:49;22.27;;;14.60;;
11125;SDS011;5617;54.046;10.676;2022-12-18T05:34:55;25.25;;;14.73;;
11125;SDS011;5617;54.046;10.676;2022-12-18T05:37:02;19.65;;;12.32;;
11125;SDS011;5617;54.046;10.676;2022-12-18T05:39:11;24.15;;;13.75;;
11125;SDS011;5617;54.046;10.676;2022-12-18T05:41:18;24.52;;;14.20;;
11125;SDS011;5617;54.046;10.676;2022-12-18T05:43:25;26.40;;;15.57;;
11125;SDS011;5617;54.046;10.676;2022-12-18T05:45:32;27.13;;;16.17;;
11125;SDS011;5617;54.046;10.676;2022-12-18T05:47:42;27.95;;;15.38;;
11125;SDS011;5617;54.046;10.676;2022-12-18T05:49:49;19.15;;;11.45;;
11125;SDS011;5617;54.046;10.676;2022-12-18T05:51:56;22.27;;;11.85;;
11125;SDS011;5617;54.046;10.676;2022-12-18T05:54:03;15.85;;;9.65;;
11125;SDS011;5617;54.046;10.676;2022-12-18T05:56:12;20.55;;;12.30;;
11125;SDS011;5617;54.046;10.676;2022-12-18T05:58:20;19.88;;;11.32;;
11125;SDS011;5617;54.046;10.676;2022-12-18T06:00:27;20.60;;;11.65;;
11125;SDS011;5617;54.046;10.676;2022-12-18T06:02:34;18.30;;;9.18;;
11125;SDS011;5617;54.046;10.676;2022-12-18T06:04:41;18.77;;;10.93;;
11125;SDS011;5617;54.046;10.676;2022-12-18T06:06:47;18.17;;;10.27;;
11125;SDS011;5617;54.046;10.676;2022-12-18T06:08:54;20.42;;;12.65;;
11125;SDS011;5617;54.046;10.676;2022-12-18T06:11:02;17.58;;;10.82;;
11125;SDS011;5617;54.046;10.676;2022-12-18T06:13:11;13.13;;;8.48;;
11125;SDS011;5617;54.046;10.676;2022-12-18T06:15:18;19.33;;;11.25;;
11125;SDS011;5617;54.046;10.676;2022-12-18T06:17:27;15.70;;;10.05;;
11125;SDS011;5617;54.046;10.676;2022-12-18T06:19:34;19.50;;;11.77;;
11125;SDS011;5617;54.046;10.676;2022-12-18T06:21:42;14.80;;;8.52;;
11125;SDS011;5617;54.046;10.676;2022-12-18T06:23:49;22.02;;;11.90;;
11125;SDS011;5617;54.046;10.676;2022-12-18T06:25:56;18.27;;;10.93;;
11125;SDS011;5617;54.046;10.676;2022-12-18T06:28:03;18.10;;;10.85;;
11125;SDS011;5617;54.046;10.676;2022-12-18T06:30:12;16.95;;;11.00;;
11125;SDS011;5617;54.046;10.676;2022-12-18T06:32:19;15.98;;;9.82;;
11125;SDS011;5617;54.046;10.676;2022-12-18T06:34:26;20.20;;;11.32;;
11125;SDS011;5617;54.046;10.676;2022-12-18T06:36:35;16.58;;;9.75;;
11125;SDS011;5617;54.046;10.676;2022-12-18T06:38:43;16.02;;;8.68;;
11125;SDS011;5617;54.046;10.676;2022-12-18T06:40:50;22.27;;;11.95;;
11125;SDS011;5617;54.046;10.676;2022-12-18T06:42:57;21.67;;;11.88;;
11125;SDS011;5617;54.046;10.676;2022-12-18T06:45:04;15.65;;;9.25;;
11125;SDS011;5617;54.046;10.676;2022-12-18T06:47:14;21.45;;;12.38;;
11125;SDS011;5617;54.046;10.676;2022-12-18T06:49:20;18.60;;;10.20;;
11125;SDS011;5617;54.046;10.676;2022-12-18T06:51:27;13.18;;;7.00;;
11125;SDS011;5617;54.046;10.676;2022-12-18T06:53:34;18.42;;;10.73;;
11125;SDS011;5617;54.046;10.676;2022-12-18T06:55:42;19.13;;;11.77;;
11125;SDS011;5617;54.046;10.676;2022-12-18T06:57:49;18.58;;;11.35;;
11125;SDS011;5617;54.046;10.676;2022-12-18T06:59:56;20.48;;;10.68;;
11125;SDS011;5617;54.046;10.676;2022-12-18T07:02:03;22.33;;;10.73;;
11125;SDS011;5617;54.046;10.676;2022-12-18T07:04:11;17.38;;;9.32;;
11125;SDS011;5617;54.046;10.676;2022-12-18T07:06:19;19.63;;;10.30;;
11125;SDS011;5617;54.046;10.676;2022-12-18T07:08:28;12.43;;;6.93;;
11125;SDS011;5617;54.046;10.676;2022-12-18T07:10:40;19.05;;;11.05;;
11125;SDS011;5617;54.046;10.676;2022-12-18T07:12:48;18.27;;;10.35;;
11125;SDS011;5617;54.046;10.676;2022-12-18T07:14:55;16.73;;;9.63;;
11125;SDS011;5617;54.046;10.676;2022-12-18T07:17:02;17.95;;;10.90;;
11125;SDS011;5617;54.046;10.676;2022-12-18T07:19:09;21.45;;;11.18;;
11125;SDS011;5617;54.046;10.676;2022-12-18T07:21:18;22.35;;;11.57;;
11125;SDS011;5617;54.046;10.676;2022-12-18T07:23:26;21.92;;;11.30;;
11125;SDS011;5617;54.046;10.676;2022-12-18T07:25:33;17.90;;;10.07;;
11125;SDS011;5617;54.046;10.676;2022-12-18T07:27:40;13.77;;;7.65;;
11125;SDS011;5617;54.046;10.676;2022-12-18T07:29:47;16.35;;;8.93;;
11125;SDS011;5617;54.046;10.676;2022-12-18T07:31:54;10.95;;;5.65;;
11125;SDS011;5617;54.046;10.676;2022-12-18T07:34:01;18.92;;;9.43;;
11125;SDS011;5617;54.046;10.676;2022-12-18T07:36:09;19.67;;;11.02;;
11125;SDS011;5617;54.046;10.676;2022-12-18T07:38:17;21.75;;;11.48;;
11125;SDS011;5617;54.046;10.676;2022-12-18T07:40:24;22.30;;;11.73;;
11125;SDS011;5617;54.046;10.676;2022-12-18T07:42:31;21.50;;;11.73;;
11125;SDS011;5617;54.046;10.676;2022-12-18T07:44:37;18.63;;;10.48;;
11125;SDS011;5617;54.046;10.676;2022-12-18T07:46:44;20.77;;;11.50;;
11125;SDS011;5617;54.046;10.676;2022-12-18T07:48:51;20.77;;;11.57;;
11125;SDS011;5617;54.046;10.676;2022-12-18T07:50:58;17.60;;;11.00;;
11125;SDS011;5617;54.046;10.676;2022-12-18T07:53:07;12.77;;;5.72;;
11125;SDS011;5617;54.046;10.676;2022-12-18T07:55:14;22.17;;;10.55;;
11125;SDS011;5617;54.046;10.676;2022-12-18T07:57:21;10.85;;;6.47;;
11125;SDS011;5617;54.046;10.676;2022-12-18T07:59:28;16.65;;;9.45;;
11125;SDS011;5617;54.046;10.676;2022-12-18T08:01:35;20.83;;;10.68;;
11125;SDS011;5617;54.046;10.676;2022-12-18T08:03:42;18.33;;;10.75;;
11125;SDS011;5617;54.046;10.676;2022-12-18T08:05:48;17.35;;;9.40;;
11125;SDS011;5617;54.046;10.676;2022-12-18T08:07:55;22.42;;;10.73;;
11125;SDS011;5617;54.046;10.676;2022-12-18T08:10:06;14.10;;;7.78;;
11125;SDS011;5617;54.046;10.676;2022-12-18T08:12:13;19.52;;;10.57;;
11125;SDS011;5617;54.046;10.676;2022-12-18T08:14:21;17.95;;;10.43;;
11125;SDS011;5617;54.046;10.676;2022-12-18T08:16:27;21.33;;;11.15;;
11125;SDS011;5617;54.046;10.676;2022-12-18T08:18:35;18.52;;;10.57;;
11125;SDS011;5617;54.046;10.676;2022-12-18T08:20:46;17.13;;;8.80;;
11125;SDS011;5617;54.046;10.676;2022-12-18T08:22:52;22.08;;;11.38;;
11125;SDS011;5617;54.046;10.676;2022-12-18T08:24:59;19.88;;;10.43;;
11125;SDS011;5617;54.046;10.676;2022-12-18T08:27:08;16.65;;;9.10;;
11125;SDS011;5617;54.046;10.676;2022-12-18T08:29:15;15.35;;;8.63;;
11125;SDS011;5617;54.046;10.676;2022-12-18T08:31:22;21.48;;;11.38;;
11125;SDS011;5617;54.046;10.676;2022-12-18T08:33:29;21.27;;;11.05;;
11125;SDS011;5617;54.046;10.676;2022-12-18T08:35:37;12.93;;;6.97;;
11125;SDS011;5617;54.046;10.676;2022-12-18T08:37:44;22.73;;;10.90;;
11125;SDS011;5617;54.046;10.676;2022-12-18T08:39:50;19.50;;;10.63;;
11125;SDS011;5617;54.046;10.676;2022-12-18T08:41:57;21.65;;;11.40;;
11125;SDS011;5617;54.046;10.676;2022-12-18T08:44:23;21.65;;;11.10;;
11125;SDS011;5617;54.046;10.676;2022-12-18T08:46:45;21.48;;;11.60;;
11125;SDS011;5617;54.046;10.676;2022-12-18T08:48:52;23.55;;;11.95;;
11125;SDS011;5617;54.046;10.676;2022-12-18T08:51:00;24.13;;;12.32;;
11125;SDS011;5617;54.046;10.676;2022-12-18T08:53:07;22.80;;;12.07;;
11125;SDS011;5617;54.046;10.676;2022-12-18T08:55:14;20.23;;;12.13;;
11125;SDS011;5617;54.046;10.676;2022-12-18T08:57:21;20.85;;;10.35;;
11125;SDS011;5617;54.046;10.676;2022-12-18T08:59:29;20.35;;;11.20;;
11125;SDS011;5617;54.046;10.676;2022-12-18T09:01:36;23.35;;;11.68;;
11125;SDS011;5617;54.046;10.676;2022-12-18T09:03:47;22.48;;;11.63;;
11125;SDS011;5617;54.046;10.676;2022-12-18T09:05:54;21.08;;;11.57;;
11125;SDS011;5617;54.046;10.676;2022-12-18T09:08:01;18.92;;;10.77;;
11125;SDS011;5617;54.046;10.676;2022-12-18T09:10:08;24.33;;;11.75;;
11125;SDS011;5617;54.046;10.676;2022-12-18T09:12:15;20.88;;;10.70;;
11125;SDS011;5617;54.046;10.676;2022-12-18T09:14:22;22.52;;;11.45;;
11125;SDS011;5617;54.046;10.676;2022-12-18T09:16:30;20.60;;;9.82;;
11125;SDS011;5617;54.046;10.676;2022-12-18T09:18:39;23.63;;;11.55;;
11125;SDS011;5617;54.046;10.676;2022-12-18T09:20:47;27.23;;;14.85;;
11125;SDS011;5617;54.046;10.676;2022-12-18T09:22:55;21.00;;;11.63;;
11125;SDS011;5617;54.046;10.676;2022-12-18T09:25:05;23.40;;;12.32;;
11125;SDS011;5617;54.046;10.676;2022-12-18T09:27:13;22.13;;;10.25;;
11125;SDS011;5617;54.046;10.676;2022-12-18T09:29:20;19.73;;;12.25;;
11125;SDS011;5617;54.046;10.676;2022-12-18T09:31:27;21.38;;;11.43;;
11125;SDS011;5617;54.046;10.676;2022-12-18T09:33:35;23.00;;;12.15;;
11125;SDS011;5617;54.046;10.676;2022-12-18T09:35:42;21.83;;;13.13;;
11125;SDS011;5617;54.046;10.676;2022-12-18T09:37:51;24.77;;;12.30;;
11125;SDS011;5617;54.046;10.676;2022-12-18T09:39:59;21.05;;;11.32;;
11125;SDS011;5617;54.046;10.676;2022-12-18T09:42:05;19.67;;;11.77;;
11125;SDS011;5617;54.046;10.676;2022-12-18T09:44:23;19.08;;;10.63;;
11125;SDS011;5617;54.046;10.676;2022-12-18T09:46:33;20.50;;;11.75;;
11125;SDS011;5617;54.046;10.676;2022-12-18T09:48:46;25.20;;;12.82;;
11125;SDS011;5617;54.046;10.676;2022-12-18T09:50:57;20.65;;;11.45;;
11125;SDS011;5617;54.046;10.676;2022-12-18T09:53:11;17.90;;;10.50;;
11125;SDS011;5617;54.046;10.676;2022-12-18T09:55:24;18.50;;;10.30;;
11125;SDS011;5617;54.046;10.676;2022-12-18T09:57:35;15.85;;;10.18;;
11125;SDS011;5617;54.046;10.676;2022-12-18T09:59:48;22.15;;;10.82;;
11125;SDS011;5617;54.046;10.676;2022-12-18T10:01:59;18.73;;;11.07;;
11125;SDS011;5617;54.046;10.676;2022-12-18T10:04:08;18.35;;;10.55;;
11125;SDS011;5617;54.046;10.676;2022-12-18T10:06:21;19.58;;;10.70;;
11125;SDS011;5617;54.046;10.676;2022-12-18T10:08:37;16.85;;;10.10;;
11125;SDS011;5617;54.046;10.676;2022-12-18T10:10:49;21.02;;;10.57;;
11125;SDS011;5617;54.046;10.676;2022-12-18T10:13:00;21.80;;;10.38;;
11125;SDS011;5617;54.046;10.676;2022-12-18T10:15:13;18.60;;;9.85;;
11125;SDS011;5617;54.046;10.676;2022-12-18T10:17:31;20.20;;;10.55;;
11125;SDS011;5617;54.046;10.676;2022-12-18T10:19:45;19.50;;;10.45;;
11125;SDS011;5617;54.046;10.676;2022-12-18T10:21:58;17.25;;;10.23;;
11125;SDS011;5617;54.046;10.676;2022-12-18T10:24:15;18.98;;;11.63;;
11125;SDS011;5617;54.046;10.676;2022-12-18T10:26:28;20.02;;;10.38;;
11125;SDS011;5617;54.046;10.676;2022-12-18T10:28:38;18.20;;;10.57;;
11125;SDS011;5617;54.046;10.676;2022-12-18T10:30:46;20.23;;;11.90;;
11125;SDS011;5617;54.046;10.676;2022-12-18T10:32:53;23.50;;;11.88;;
11125;SDS011;5617;54.046;10.676;2022-12-18T10:35:02;19.95;;;9.82;;
11125;SDS011;5617;54.046;10.676;2022-12-18T10:37:10;23.10;;;11.68;;
11125;SDS011;5617;54.046;10.676;2022-12-18T10:39:22;19.17;;;11.27;;
11125;SDS011;5617;54.046;10.676;2022-12-18T10:41:31;15.85;;;9.60;;
11125;SDS011;5617;54.046;10.676;2022-12-18T10:43:38;16.92;;;10.38;;
11125;SDS011;5617;54.046;10.676;2022-12-18T10:45:57;18.33;;;10.77;;
11125;SDS011;5617;54.046;10.676;2022-12-18T10:48:18;16.83;;;9.40;;
11125;SDS011;5617;54.046;10.676;2022-12-18T10:50:28;16.25;;;9.95;;
11125;SDS011;5617;54.046;10.676;2022-12-18T10:52:37;18.17;;;10.48;;
11125;SDS011;5617;54.046;10.676;2022-12-18T10:54:50;18.73;;;9.93;;
11125;SDS011;5617;54.046;10.676;2022-12-18T10:57:13;18.00;;;10.50;;
11125;SDS011;5617;54.046;10.676;2022-12-18T10:59:21;19.95;;;10.50;;
11125;SDS011;5617;54.046;10.676;2022-12-18T11:01:28;19.23;;;9.80;;
11125;SDS011;5617;54.046;10.676;2022-12-18T11:03:59;19.08;;;10.30;;
11125;SDS011;5617;54.046;10.676;2022-12-18T11:06:10;20.15;;;9.98;;
11125;SDS011;5617;54.046;10.676;2022-12-18T11:08:19;15.10;;;8.43;;
11125;SDS011;5617;54.046;10.676;2022-12-18T11:10:30;18.45;;;10.27;;
11125;SDS011;5617;54.046;10.676;2022-12-18T11:12:38;17.37;;;10.40;;
11125;SDS011;5617;54.046;10.676;2022-12-18T11:14:47;18.42;;;10.10;;
11125;SDS011;5617;54.046;10.676;2022-12-18T11:16:55;17.98;;;10.80;;
11125;SDS011;5617;54.046;10.676;2022-12-18T11:19:13;18.02;;;10.70;;
11125;SDS011;5617;54.046;10.676;2022-12-18T11:21:28;13.63;;;8.67;;
11125;SDS011;5617;54.046;10.676;2022-12-18T11:23:35;16.65;;;9.25;;
11125;SDS011;5617;54.046;10.676;2022-12-18T11:25:50;18.23;;;9.35;;
11125;SDS011;5617;54.046;10.676;2022-12-18T11:27:59;18.98;;;10.02;;
11125;SDS011;5617;54.046;10.676;2022-12-18T11:30:07;18.20;;;9.97;;
11125;SDS011;5617;54.046;10.676;2022-12-18T11:32:30;17.60;;;9.52;;
11125;SDS011;5617;54.046;10.676;2022-12-18T11:34:41;17.60;;;9.15;;
11125;SDS011;5617;54.046;10.676;2022-12-18T11:36:53;15.40;;;8.80;;
11125;SDS011;5617;54.046;10.676;2022-12-18T11:39:02;17.03;;;10.03;;
11125;SDS011;5617;54.046;10.676;2022-12-18T11:41:18;16.00;;;9.23;;
11125;SDS011;5617;54.046;10.676;2022-12-18T11:43:50;14.73;;;9.17;;
11125;SDS011;5617;54.046;10.676;2022-12-18T11:46:04;14.07;;;8.77;;
11125;SDS011;5617;54.046;10.676;2022-12-18T11:48:16;18.70;;;9.20;;
11125;SDS011;5617;54.046;10.676;2022-12-18T11:50:28;18.13;;;10.23;;
11125;SDS011;5617;54.046;10.676;2022-12-18T11:52:40;16.93;;;10.00;;
11125;SDS011;5617;54.046;10.676;2022-12-18T11:54:50;17.30;;;11.50;;
11125;SDS011;5617;54.046;10.676;2022-12-18T11:56:58;17.60;;;12.15;;
11125;SDS011;5617;54.046;10.676;2022-12-18T11:59:15;20.17;;;12.03;;
11125;SDS011;5617;54.046;10.676;2022-12-18T12:01:35;22.10;;;13.07;;
11125;SDS011;5617;54.046;10.676;2022-12-18T12:03:57;18.83;;;11.68;;
11125;SDS011;5617;54.046;10.676;2022-12-18T12:06:14;19.48;;;10.60;;
11125;SDS011;5617;54.046;10.676;2022-12-18T12:08:31;18.90;;;11.27;;
11125;SDS011;5617;54.046;10.676;2022-12-18T12:10:48;33.88;;;18.52;;
11125;SDS011;5617;54.046;10.676;2022-12-18T12:13:08;44.47;;;19.45;;
11125;SDS011;5617;54.046;10.676;2022-12-18T12:15:27;28.85;;;14.23;;
11125;SDS011;5617;54.046;10.676;2022-12-18T12:17:42;22.20;;;12.18;;
11125;SDS011;5617;54.046;10.676;2022-12-18T12:19:57;24.97;;;14.03;;
11125;SDS011;5617;54.046;10.676;2022-12-18T12:22:09;29.37;;;19.13;;
11125;SDS011;5617;54.046;10.676;2022-12-18T12:24:29;21.30;;;13.88;;
11125;SDS011;5617;54.046;10.676;2022-12-18T12:26:45;16.42;;;10.35;;
11125;SDS011;5617;54.046;10.676;2022-12-18T12:29:10;20.40;;;12.60;;
11125;SDS011;5617;54.046;10.676;2022-12-18T12:31:39;19.77;;;11.23;;
11125;SDS011;5617;54.046;10.676;2022-12-18T12:33:57;15.93;;;9.33;;
11125;SDS011;5617;54.046;10.676;2022-12-18T12:36:14;17.27;;;10.03;;
11125;SDS011;5617;54.046;10.676;2022-12-18T12:38:28;15.98;;;9.80;;
11125;SDS011;5617;54.046;10.676;2022-12-18T12:40:43;18.07;;;11.03;;
11125;SDS011;5617;54.046;10.676;2022-12-18T12:42:54;16.38;;;9.82;;